Time;durP1;ratioP1;P1;durP2;ratioP2;P2;SDS_P1;SDS_P2;PMS_P1;PMS_P2;Temp;Humidity;BMP_temperature;BMP_pressure;BME280_temperature;BME280_humidity;BME280_pressure;Samples;Min_cycle;Max_cycle;Signal;HPM_P1;HPM_P2
2023/09/04 04:39:09;;;;;;;1.17;1.17;;;;;;;;;;5078523;23;20275;-73
2023/09/04 04:41:36;;;;;;;1.20;1.20;;;;;;;;;;4954989;28;20266;-72
2023/09/04 04:44:03;;;;;;;1.40;1.40;;;;;;;;;;4955373;29;20203;-72
2023/09/04 04:46:30;;;;;;;1.42;1.42;;;;;;;;;;4955404;29;20211;-72
2023/09/04 04:48:57;;;;;;;1.10;1.10;;;;;;;;;;4955272;28;20220;-72
2023/09/04 04:51:24;;;;;;;1.45;1.45;;;;;;;;;;4955664;29;20711;-75
2023/09/04 04:53:51;;;;;;;1.55;1.55;;;;;;;;;;4954901;29;20698;-75
2023/09/04 04:56:20;;;;;;;1.40;1.40;;;;;;;;;;4955256;29;20200;-74
2023/09/04 04:58:47;;;;;;;1.15;1.15;;;;;;;;;;4955091;29;20232;-74
2023/09/04 05:01:14;;;;;;;1.60;1.60;;;;;;;;;;4955261;29;20220;-74
2023/09/04 05:03:41;;;;;;;1.88;1.88;;;;;;;;;;4955603;29;20215;-74
2023/09/04 05:06:08;;;;;;;1.30;1.30;;;;;;;;;;4955237;29;20215;-74
2023/09/04 05:08:35;;;;;;;1.85;1.75;;;;;;;;;;4954866;29;20556;-74
2023/09/04 05:11:03;;;;;;;1.60;1.60;;;;;;;;;;4955592;29;20207;-74
2023/09/04 05:13:32;;;;;;;1.80;1.80;;;;;;;;;;4955431;29;20205;-74
2023/09/04 05:16:03;;;;;;;1.70;1.70;;;;;;;;;;4955373;29;20200;-74
2023/09/04 05:18:30;;;;;;;2.15;1.98;;;;;;;;;;4955086;29;20235;-74
2023/09/04 05:20:57;;;;;;;1.70;1.70;;;;;;;;;;4955212;29;20220;-76
2023/09/04 05:23:24;;;;;;;1.77;1.77;;;;;;;;;;4954931;29;20208;-76
2023/09/04 05:25:52;;;;;;;1.63;1.63;;;;;;;;;;4954957;29;20215;-76
2023/09/04 05:28:19;;;;;;;1.80;1.70;;;;;;;;;;4954880;29;20226;-75
2023/09/04 05:30:48;;;;;;;1.70;1.60;;;;;;;;;;4954908;29;20207;-75
2023/09/04 05:33:15;;;;;;;1.88;1.88;;;;;;;;;;4954592;29;20672;-76
2023/09/04 05:35:42;;;;;;;2.20;2.20;;;;;;;;;;4954522;29;20671;-76
2023/09/04 05:38:09;;;;;;;1.95;1.95;;;;;;;;;;4954822;29;20243;-76
2023/09/04 05:40:36;;;;;;;1.85;1.85;;;;;;;;;;4954523;29;20232;-77
2023/09/04 05:43:03;;;;;;;1.80;1.80;;;;;;;;;;4954794;29;20200;-76
2023/09/04 05:45:30;;;;;;;1.67;1.67;;;;;;;;;;4954713;28;20204;-76
2023/09/04 05:47:59;;;;;;;1.42;1.42;;;;;;;;;;4958033;29;20235;-75
2023/09/04 05:50:26;;;;;;;1.90;1.80;;;;;;;;;;4958131;29;20200;-75
2023/09/04 05:52:53;;;;;;;1.95;1.85;;;;;;;;;;4957866;29;20680;-75
2023/09/04 05:55:20;;;;;;;1.65;1.60;;;;;;;;;;4957772;28;20747;-75
2023/09/04 05:57:47;;;;;;;1.52;1.42;;;;;;;;;;4957778;28;20224;-75
2023/09/04 06:00:15;;;;;;;1.42;1.42;;;;;;;;;;4957970;29;20223;-75
2023/09/04 06:02:42;;;;;;;1.88;1.77;;;;;;;;;;4958202;29;20203;-75
2023/09/04 06:05:11;;;;;;;1.60;1.60;;;;;;;;;;4957978;29;20208;-75
2023/09/04 06:07:39;;;;;;;1.67;1.67;;;;;;;;;;4957941;28;20228;-76
2023/09/04 06:10:06;;;;;;;1.58;1.48;;;;;;;;;;4957868;29;20295;-76
2023/09/04 06:12:33;;;;;;;1.55;1.48;;;;;;;;;;4957866;29;20204;-76
2023/09/04 06:15:00;;;;;;;1.25;1.25;;;;;;;;;;4957840;29;20240;-76
2023/09/04 06:17:27;;;;;;;1.27;1.27;;;;;;;;;;4957526;29;20751;-75
2023/09/04 06:19:55;;;;;;;1.88;1.77;;;;;;;;;;4957593;29;20207;-75
2023/09/04 06:22:23;;;;;;;1.30;1.30;;;;;;;;;;4957533;29;20208;-75
2023/09/04 06:24:50;;;;;;;1.83;1.70;;;;;;;;;;4957627;29;20218;-75
2023/09/04 06:27:17;;;;;;;1.20;1.02;;;;;;;;;;4957188;29;20235;-76
2023/09/04 06:29:44;;;;;;;1.60;1.60;;;;;;;;;;4957665;29;20203;-76
2023/09/04 06:32:14;;;;;;;1.20;1.20;;;;;;;;;;4957671;29;20195;-76
2023/09/04 06:34:41;;;;;;;1.20;1.20;;;;;;;;;;4957327;29;20246;-76
2023/09/04 06:37:08;;;;;;;1.27;1.27;;;;;;;;;;4957307;29;20208;-76
2023/09/04 06:39:37;;;;;;;1.40;1.30;;;;;;;;;;4957151;29;20207;-76
2023/09/04 06:42:04;;;;;;;1.25;1.25;;;;;;;;;;4956909;29;20602;-76
2023/09/04 06:44:32;;;;;;;1.30;1.30;;;;;;;;;;4957128;29;20207;-76
2023/09/04 06:46:59;;;;;;;1.15;1.15;;;;;;;;;;4956827;29;20681;-76
2023/09/04 06:49:26;;;;;;;0.98;0.98;;;;;;;;;;4957061;29;20204;-76
2023/09/04 06:51:53;;;;;;;0.80;0.80;;;;;;;;;;4957051;29;20204;-76
2023/09/04 06:54:20;;;;;;;1.20;1.20;;;;;;;;;;4957056;29;20219;-76
2023/09/04 06:56:49;;;;;;;1.40;1.30;;;;;;;;;;4956619;28;20698;-76
2023/09/04 06:59:16;;;;;;;1.20;1.10;;;;;;;;;;4956892;29;20224;-76
2023/09/04 07:01:43;;;;;;;1.00;1.00;;;;;;;;;;4956883;28;20347;-76
2023/09/04 07:04:10;;;;;;;1.20;1.20;;;;;;;;;;4956623;29;20795;-76
2023/09/04 07:06:37;;;;;;;1.30;1.30;;;;;;;;;;4956542;29;20610;-76
2023/09/04 07:09:05;;;;;;;1.15;1.15;;;;;;;;;;4956762;29;20227;-76
2023/09/04 07:11:32;;;;;;;0.95;0.95;;;;;;;;;;4956708;29;20199;-76
2023/09/04 07:14:00;;;;;;;1.00;1.00;;;;;;;;;;4956716;29;20205;-76
2023/09/04 07:16:27;;;;;;;1.10;1.10;;;;;;;;;;4956620;29;20210;-76
2023/09/04 07:18:54;;;;;;;1.63;1.23;;;;;;;;;;4956473;29;20230;-76
2023/09/04 07:21:21;;;;;;;1.20;1.15;;;;;;;;;;4956561;29;20219;-76
2023/09/04 07:23:48;;;;;;;1.10;1.00;;;;;;;;;;4956591;28;20258;-77
2023/09/04 07:26:15;;;;;;;0.80;0.80;;;;;;;;;;4956956;29;20229;-77
2023/09/04 07:28:42;;;;;;;1.08;0.98;;;;;;;;;;4956312;29;20219;-77
2023/09/04 07:31:18;;;;;;;0.90;0.90;;;;;;;;;;4956908;29;20196;-77
2023/09/04 07:33:45;;;;;;;1.33;0.80;;;;;;;;;;4957464;28;20245;-76
2023/09/04 07:36:13;;;;;;;1.30;1.20;;;;;;;;;;4957400;29;20203;-76
2023/09/04 07:38:40;;;;;;;0.98;0.90;;;;;;;;;;4957571;29;20227;-77
2023/09/04 07:41:08;;;;;;;0.95;0.90;;;;;;;;;;4957265;29;20227;-76
2023/09/04 07:43:35;;;;;;;1.20;1.10;;;;;;;;;;4957590;29;20208;-76
2023/09/04 07:46:03;;;;;;;0.95;0.95;;;;;;;;;;4957404;29;20302;-76
2023/09/04 07:48:33;;;;;;;1.13;1.13;;;;;;;;;;4957513;29;20229;-76
2023/09/04 07:51:01;;;;;;;0.90;0.90;;;;;;;;;;4957994;28;20270;-76
2023/09/04 07:53:28;;;;;;;0.90;0.90;;;;;;;;;;4957305;29;20200;-76
2023/09/04 07:55:55;;;;;;;1.05;1.05;;;;;;;;;;4957170;29;20250;-76
2023/09/04 07:58:23;;;;;;;0.90;0.90;;;;;;;;;;4957762;29;20746;-76
2023/09/04 08:00:51;;;;;;;1.25;1.25;;;;;;;;;;4957107;29;20306;-75
2023/09/04 08:03:18;;;;;;;1.20;1.20;;;;;;;;;;4957336;29;20690;-75
2023/09/04 08:05:47;;;;;;;1.00;1.00;;;;;;;;;;4957412;29;20290;-76
2023/09/04 08:08:14;;;;;;;1.10;1.10;;;;;;;;;;4957297;28;20227;-76
2023/09/04 08:10:43;;;;;;;1.00;1.00;;;;;;;;;;4956063;29;20207;-76
2023/09/04 08:13:11;;;;;;;1.00;1.00;;;;;;;;;;4955920;29;20214;-76
2023/09/04 08:15:38;;;;;;;1.30;0.85;;;;;;;;;;4956107;29;20211;-76
2023/09/04 08:18:06;;;;;;;0.70;0.70;;;;;;;;;;4956495;29;20302;-76
2023/09/04 08:20:34;;;;;;;1.75;0.80;;;;;;;;;;4955619;29;20211;-76
2023/09/04 08:23:02;;;;;;;0.90;0.90;;;;;;;;;;4955713;29;20210;-77
2023/09/04 08:25:29;;;;;;;0.70;0.70;;;;;;;;;;4955654;29;20647;-77
2023/09/04 08:27:56;;;;;;;1.00;1.00;;;;;;;;;;4955374;29;20227;-76
2023/09/04 08:30:25;;;;;;;0.65;0.65;;;;;;;;;;4955649;29;20272;-76
2023/09/04 08:32:52;;;;;;;1.95;0.95;;;;;;;;;;4955177;28;20203;-76
2023/09/04 08:35:19;;;;;;;0.88;0.88;;;;;;;;;;4956088;29;20210;-76
2023/09/04 08:37:47;;;;;;;0.90;0.90;;;;;;;;;;4957013;29;20227;-78
2023/09/04 08:40:15;;;;;;;0.82;0.82;;;;;;;;;;4955481;29;20207;-75
2023/09/04 08:42:45;;;;;;;1.02;1.02;;;;;;;;;;4956397;29;20223;-73
2023/09/04 08:45:13;;;;;;;1.48;1.30;;;;;;;;;;4956359;29;20243;-73
2023/09/04 08:47:41;;;;;;;1.10;1.10;;;;;;;;;;4955615;29;20219;-74
2023/09/04 08:50:08;;;;;;;1.10;1.10;;;;;;;;;;4955372;29;20203;-73
2023/09/04 08:52:37;;;;;;;1.30;1.30;;;;;;;;;;4955252;29;20571;-74
2023/09/04 08:55:04;;;;;;;1.50;1.48;;;;;;;;;;4955769;29;20208;-74
2023/09/04 08:57:33;;;;;;;1.20;1.20;;;;;;;;;;4955178;29;20678;-73
2023/09/04 09:00:00;;;;;;;1.45;1.20;;;;;;;;;;4955819;29;20199;-74
2023/09/04 09:02:27;;;;;;;1.08;1.08;;;;;;;;;;4955262;29;20223;-74
2023/09/04 09:04:55;;;;;;;1.40;1.30;;;;;;;;;;4954948;29;20689;-74
2023/09/04 09:07:23;;;;;;;1.02;1.02;;;;;;;;;;4955110;29;20255;-73
2023/09/04 09:09:52;;;;;;;1.23;1.20;;;;;;;;;;4955456;29;20207;-74
2023/09/04 09:12:19;;;;;;;1.30;1.23;;;;;;;;;;4955530;29;20227;-74
2023/09/04 09:14:47;;;;;;;1.55;1.55;;;;;;;;;;4955429;29;20211;-77
2023/09/04 09:17:14;;;;;;;1.50;1.50;;;;;;;;;;4955366;29;20212;-77
2023/09/04 09:19:42;;;;;;;1.25;1.25;;;;;;;;;;4956799;29;20215;-78
2023/09/04 09:22:11;;;;;;;1.05;1.05;;;;;;;;;;4958124;28;20254;-77
2023/09/04 09:24:49;;;;;;;1.83;1.70;;;;;;;;;;4960867;28;20269;-77
2023/09/04 09:27:17;;;;;;;1.20;1.20;;;;;;;;;;4958834;29;20239;-76
2023/09/04 09:29:44;;;;;;;1.10;1.10;;;;;;;;;;4958922;29;20207;-77
2023/09/04 09:32:12;;;;;;;1.40;1.40;;;;;;;;;;4958388;29;20200;-76
2023/09/04 09:34:39;;;;;;;1.30;1.30;;;;;;;;;;4958290;29;20555;-77
2023/09/04 09:37:07;;;;;;;1.40;1.40;;;;;;;;;;4958685;28;20199;-76
2023/09/04 09:39:34;;;;;;;1.58;1.58;;;;;;;;;;4958117;29;20571;-76
2023/09/04 09:42:02;;;;;;;1.50;1.38;;;;;;;;;;4958502;29;20579;-76
2023/09/04 09:44:31;;;;;;;1.30;1.30;;;;;;;;;;4958465;29;20203;-77
2023/09/04 09:46:58;;;;;;;1.25;1.25;;;;;;;;;;4958323;29;20199;-77
2023/09/04 09:49:27;;;;;;;1.50;1.40;;;;;;;;;;4958046;29;20203;-75
2023/09/04 09:51:55;;;;;;;1.10;1.10;;;;;;;;;;4958342;29;20195;-76
2023/09/04 09:54:34;;;;;;;1.65;1.55;;;;;;;;;;4958263;29;20196;-76
2023/09/04 09:57:01;;;;;;;2.15;1.50;;;;;;;;;;4958360;29;20231;-75
2023/09/04 09:59:29;;;;;;;3.55;1.40;;;;;;;;;;4958172;29;20220;-76
2023/09/04 10:01:56;;;;;;;1.50;1.48;;;;;;;;;;4958022;29;20223;-76
2023/09/04 10:04:23;;;;;;;1.45;1.45;;;;;;;;;;4957730;29;20668;-75
2023/09/04 10:06:54;;;;;;;1.00;1.00;;;;;;;;;;4958392;29;20207;-78
2023/09/04 10:09:23;;;;;;;1.27;1.27;;;;;;;;;;4958041;29;20227;-77
2023/09/04 10:11:53;;;;;;;1.08;1.08;;;;;;;;;;4958637;28;20524;-77
2023/09/04 10:14:22;;;;;;;1.30;1.30;;;;;;;;;;4957924;29;20188;-77
2023/09/04 10:16:51;;;;;;;1.60;1.50;;;;;;;;;;4957870;29;20210;-77
2023/09/04 10:19:19;;;;;;;1.33;1.33;;;;;;;;;;4957801;29;20223;-77
2023/09/04 10:21:50;;;;;;;1.25;1.25;;;;;;;;;;4957616;28;20223;-78
2023/09/04 10:24:23;;;;;;;1.40;1.40;;;;;;;;;;4958210;29;20183;-77
2023/09/04 10:26:55;;;;;;;2.25;1.40;;;;;;;;;;4957906;29;20188;-77
2023/09/04 10:29:27;;;;;;;1.77;1.60;;;;;;;;;;4957730;29;20235;-77
2023/09/04 10:31:54;;;;;;;1.88;1.67;;;;;;;;;;4957082;28;20180;-77
2023/09/04 10:34:21;;;;;;;1.40;1.40;;;;;;;;;;4957599;29;20266;-77
2023/09/04 10:36:49;;;;;;;1.77;1.67;;;;;;;;;;4957558;29;20184;-77
2023/09/04 10:39:17;;;;;;;1.20;1.20;;;;;;;;;;4957496;29;20223;-77
2023/09/04 10:41:46;;;;;;;1.85;1.75;;;;;;;;;;4957107;29;20231;-75
2023/09/04 10:44:13;;;;;;;1.88;1.77;;;;;;;;;;4957163;29;20752;-77
2023/09/04 10:46:55;;;;;;;1.42;1.42;;;;;;;;;;4957093;29;20675;-75
2023/09/04 10:49:31;;;;;;;1.50;1.40;;;;;;;;;;4957337;28;20271;-75
2023/09/04 10:51:58;;;;;;;1.60;1.55;;;;;;;;;;4957338;29;20184;-75
2023/09/04 10:54:26;;;;;;;1.50;1.50;;;;;;;;;;4957037;29;20203;-75
2023/09/04 10:56:55;;;;;;;2.75;1.70;;;;;;;;;;4956880;29;20290;-76
2023/09/04 10:59:22;;;;;;;1.83;1.80;;;;;;;;;;4957319;29;20329;-76
2023/09/04 11:01:49;;;;;;;1.50;1.50;;;;;;;;;;4957057;29;20215;-76
2023/09/04 11:04:28;;;;;;;1.98;1.40;;;;;;;;;;4956938;29;20203;-76
2023/09/04 11:07:10;;;;;;;3.95;1.98;;;;;;;;;;4956996;29;20552;-76
2023/09/04 11:09:37;;;;;;;1.33;1.33;;;;;;;;;;4957010;28;20553;-76
2023/09/04 11:12:11;;;;;;;1.73;1.63;;;;;;;;;;4956647;29;20199;-77
2023/09/04 11:14:45;;;;;;;1.48;1.42;;;;;;;;;;4956774;29;20709;-76
2023/09/04 11:17:13;;;;;;;1.60;1.60;;;;;;;;;;4956782;29;20187;-75
2023/09/04 11:19:40;;;;;;;1.77;1.65;;;;;;;;;;4957317;29;20208;-75
2023/09/04 11:22:16;;;;;;;2.97;1.67;;;;;;;;;;4957016;29;20227;-75
2023/09/04 11:24:43;;;;;;;2.05;1.67;;;;;;;;;;4956873;29;20232;-75
2023/09/04 11:27:11;;;;;;;1.80;1.70;;;;;;;;;;4956046;29;20214;-76
2023/09/04 11:29:38;;;;;;;1.45;1.45;;;;;;;;;;4956391;29;20199;-76
2023/09/04 11:32:05;;;;;;;1.38;1.35;;;;;;;;;;4956515;29;20207;-75
2023/09/04 11:34:32;;;;;;;1.50;1.50;;;;;;;;;;4956631;29;20199;-75
2023/09/04 11:36:59;;;;;;;1.70;1.60;;;;;;;;;;4956267;29;20556;-75
2023/09/04 11:39:26;;;;;;;1.27;1.27;;;;;;;;;;4978544;23;20227;-69
2023/09/04 11:41:55;;;;;;;1.52;1.50;;;;;;;;;;4955821;29;20680;-69
2023/09/04 11:44:24;;;;;;;1.40;1.40;;;;;;;;;;4955443;28;20208;-69
2023/09/04 11:46:51;;;;;;;1.63;1.52;;;;;;;;;;4956239;29;20204;-69
2023/09/04 11:49:18;;;;;;;1.63;1.63;;;;;;;;;;4956127;29;20252;-69
2023/09/04 11:51:45;;;;;;;1.63;1.52;;;;;;;;;;4956160;29;20203;-69
2023/09/04 11:54:13;;;;;;;1.67;1.58;;;;;;;;;;4956256;29;20542;-69
2023/09/04 11:56:40;;;;;;;2.22;1.35;;;;;;;;;;4956064;29;20315;-69
2023/09/04 11:59:07;;;;;;;1.75;1.65;;;;;;;;;;4956014;29;20255;-69
2023/09/04 12:01:36;;;;;;;1.60;1.50;;;;;;;;;;4955999;29;20208;-69
2023/09/04 12:04:03;;;;;;;1.38;1.38;;;;;;;;;;4955957;29;20223;-69
2023/09/04 12:06:33;;;;;;;2.00;1.80;;;;;;;;;;4955961;29;20266;-69
2023/09/04 12:09:00;;;;;;;1.35;1.35;;;;;;;;;;4955388;29;20290;-69
2023/09/04 12:11:29;;;;;;;1.73;1.50;;;;;;;;;;4955785;28;20230;-69
2023/09/04 12:13:56;;;;;;;1.73;1.63;;;;;;;;;;4955543;29;20207;-68
2023/09/04 12:16:23;;;;;;;1.50;1.48;;;;;;;;;;4955577;29;20215;-69
2023/09/04 12:18:51;;;;;;;1.60;1.50;;;;;;;;;;4956311;29;20234;-69
2023/09/04 12:21:19;;;;;;;3.10;1.88;;;;;;;;;;4956457;29;20521;-69
2023/09/04 12:23:47;;;;;;;1.50;1.40;;;;;;;;;;4955387;29;20226;-69
2023/09/04 12:26:16;;;;;;;1.60;1.50;;;;;;;;;;4955726;29;20195;-69
2023/09/04 12:28:43;;;;;;;1.65;1.58;;;;;;;;;;4955839;29;20233;-69
2023/09/04 12:31:11;;;;;;;1.80;1.70;;;;;;;;;;4956712;29;20215;-69
2023/09/04 12:33:38;;;;;;;2.28;1.38;;;;;;;;;;4956276;29;20199;-69
2023/09/04 12:36:09;;;;;;;1.58;1.58;;;;;;;;;;4956523;29;20207;-70
2023/09/04 12:38:36;;;;;;;1.63;1.63;;;;;;;;;;4957001;29;20235;-72
2023/09/04 12:41:03;;;;;;;1.52;1.50;;;;;;;;;;4957536;29;20188;-71
2023/09/04 12:43:30;;;;;;;1.48;1.38;;;;;;;;;;4955961;28;20219;-71
2023/09/04 12:45:57;;;;;;;1.55;1.27;;;;;;;;;;4955407;29;20241;-71
2023/09/04 12:48:25;;;;;;;1.48;1.48;;;;;;;;;;4955256;29;20569;-71
2023/09/04 12:50:52;;;;;;;1.42;1.42;;;;;;;;;;4955754;28;20258;-72
2023/09/04 12:53:20;;;;;;;1.30;1.30;;;;;;;;;;4955855;29;20199;-71
2023/09/04 12:55:47;;;;;;;1.27;1.27;;;;;;;;;;4957625;28;20207;-73
2023/09/04 12:58:15;;;;;;;1.75;1.65;;;;;;;;;;4959585;29;20203;-72
2023/09/04 13:00:43;;;;;;;2.58;1.60;;;;;;;;;;4959553;29;20199;-71
2023/09/04 13:03:10;;;;;;;1.42;1.42;;;;;;;;;;4959222;29;20255;-72
2023/09/04 13:05:37;;;;;;;1.52;1.48;;;;;;;;;;4959384;29;20210;-69
2023/09/04 13:08:05;;;;;;;1.30;1.30;;;;;;;;;;4959109;29;20211;-68
2023/09/04 13:10:34;;;;;;;1.90;1.80;;;;;;;;;;4959216;29;20207;-70
2023/09/04 13:13:01;;;;;;;1.50;1.50;;;;;;;;;;4958774;29;20671;-68
2023/09/04 13:15:28;;;;;;;1.75;1.48;;;;;;;;;;4959070;29;20288;-68
2023/09/04 13:17:56;;;;;;;1.55;1.55;;;;;;;;;;4959067;29;20211;-68
2023/09/04 13:20:23;;;;;;;1.98;1.88;;;;;;;;;;4958881;29;20262;-69
2023/09/04 13:22:50;;;;;;;4.20;1.70;;;;;;;;;;4958768;29;20219;-70
2023/09/04 13:25:18;;;;;;;1.75;1.75;;;;;;;;;;4958904;28;20207;-69
2023/09/04 13:27:46;;;;;;;3.53;1.40;;;;;;;;;;4958751;29;20203;-69
2023/09/04 13:30:13;;;;;;;1.25;1.25;;;;;;;;;;4959579;29;20562;-69
2023/09/04 13:32:41;;;;;;;1.63;1.52;;;;;;;;;;4958784;29;20206;-70
2023/09/04 13:35:08;;;;;;;1.48;1.48;;;;;;;;;;4958526;29;20208;-70
2023/09/04 13:37:36;;;;;;;1.50;1.50;;;;;;;;;;4958898;29;20210;-70
2023/09/04 13:40:04;;;;;;;1.38;1.38;;;;;;;;;;4958456;29;20235;-70
2023/09/04 13:42:31;;;;;;;1.25;1.25;;;;;;;;;;4958365;29;20239;-69
2023/09/04 13:45:00;;;;;;;1.83;1.73;;;;;;;;;;4959146;28;20199;-69
2023/09/04 13:47:28;;;;;;;2.05;1.40;;;;;;;;;;4959172;29;20192;-69
2023/09/04 13:49:56;;;;;;;1.65;1.55;;;;;;;;;;4958978;29;20220;-70
2023/09/04 13:52:23;;;;;;;1.65;1.65;;;;;;;;;;4958959;29;20208;-70
2023/09/04 13:54:51;;;;;;;1.50;1.40;;;;;;;;;;4958935;29;20203;-70
2023/09/04 13:57:19;;;;;;;1.52;1.33;;;;;;;;;;4959000;29;20258;-70
2023/09/04 13:59:46;;;;;;;1.45;1.45;;;;;;;;;;4959567;29;20306;-70
2023/09/04 14:02:15;;;;;;;1.50;1.50;;;;;;;;;;4959739;29;20203;-70
2023/09/04 14:04:42;;;;;;;1.30;1.20;;;;;;;;;;4958614;29;20675;-70
2023/09/04 14:07:09;;;;;;;1.75;1.30;;;;;;;;;;4958244;28;20212;-70
2023/09/04 14:09:37;;;;;;;5.05;1.30;;;;;;;;;;4959240;29;20251;-70
2023/09/04 14:12:04;;;;;;;1.02;1.02;;;;;;;;;;4958679;29;20207;-70
2023/09/04 14:14:31;;;;;;;1.73;1.63;;;;;;;;;;4959134;29;20200;-70
2023/09/04 14:16:59;;;;;;;1.67;1.58;;;;;;;;;;4957477;29;20199;-69
2023/09/04 14:19:27;;;;;;;1.50;1.40;;;;;;;;;;4958632;29;20223;-69
2023/09/04 14:21:54;;;;;;;1.50;1.50;;;;;;;;;;4958163;29;20204;-69
2023/09/04 14:24:21;;;;;;;1.55;1.45;;;;;;;;;;4958498;29;20223;-70
2023/09/04 14:26:49;;;;;;;1.80;1.77;;;;;;;;;;4958548;29;20263;-70
2023/09/04 14:29:17;;;;;;;1.60;1.55;;;;;;;;;;4958572;28;20275;-70
2023/09/04 14:31:44;;;;;;;1.98;1.75;;;;;;;;;;4959255;29;20207;-69
2023/09/04 14:34:11;;;;;;;1.17;1.10;;;;;;;;;;4959716;29;20243;-71
2023/09/04 14:36:40;;;;;;;1.55;1.52;;;;;;;;;;4959281;29;20215;-70
2023/09/04 14:39:07;;;;;;;1.13;1.13;;;;;;;;;;4958818;29;20235;-70
2023/09/04 14:41:36;;;;;;;2.95;1.70;;;;;;;;;;4959417;29;20204;-70
2023/09/04 14:44:05;;;;;;;1.50;1.23;;;;;;;;;;4959196;29;20230;-70
2023/09/04 14:46:34;;;;;;;1.77;1.20;;;;;;;;;;4961542;29;20647;-71
2023/09/04 14:49:02;;;;;;;1.35;1.35;;;;;;;;;;4959241;29;20231;-71
2023/09/04 14:51:29;;;;;;;1.40;1.40;;;;;;;;;;4958829;29;20208;-71
2023/09/04 14:53:58;;;;;;;1.50;1.40;;;;;;;;;;4958813;29;20613;-71
2023/09/04 14:56:26;;;;;;;2.30;1.40;;;;;;;;;;4959200;29;20203;-71
2023/09/04 14:58:53;;;;;;;1.20;1.20;;;;;;;;;;4958640;29;20228;-71
2023/09/04 15:01:21;;;;;;;1.50;1.40;;;;;;;;;;4959192;29;20210;-72
2023/09/04 15:03:49;;;;;;;1.17;1.05;;;;;;;;;;4958153;28;20223;-70
2023/09/04 15:06:16;;;;;;;1.92;1.58;;;;;;;;;;4957365;29;20206;-72
2023/09/04 15:08:44;;;;;;;1.15;1.15;;;;;;;;;;4957252;29;20227;-72
2023/09/04 15:11:13;;;;;;;1.35;1.35;;;;;;;;;;4956868;29;20203;-72
2023/09/04 15:13:40;;;;;;;1.00;1.00;;;;;;;;;;4957159;29;20200;-72
2023/09/04 15:16:07;;;;;;;1.25;1.25;;;;;;;;;;4956970;29;20210;-72
2023/09/04 15:18:35;;;;;;;1.45;1.35;;;;;;;;;;4956788;28;20219;-73
2023/09/04 15:21:04;;;;;;;1.63;1.20;;;;;;;;;;4956781;29;20216;-74
2023/09/04 15:23:31;;;;;;;1.23;1.23;;;;;;;;;;4956688;29;20219;-71
2023/09/04 15:25:59;;;;;;;1.42;1.20;;;;;;;;;;4956761;29;20192;-71
2023/09/04 15:28:27;;;;;;;1.60;1.50;;;;;;;;;;4956572;29;20587;-70
2023/09/04 15:30:57;;;;;;;2.35;1.10;;;;;;;;;;4956659;29;20251;-72
2023/09/04 15:33:24;;;;;;;1.40;1.40;;;;;;;;;;4956359;29;20195;-72
2023/09/04 15:35:51;;;;;;;1.35;1.35;;;;;;;;;;4956762;29;20211;-70
2023/09/04 15:38:19;;;;;;;0.98;0.98;;;;;;;;;;4956657;29;20235;-70
2023/09/04 15:40:46;;;;;;;2.63;1.48;;;;;;;;;;4956424;29;20266;-71
2023/09/04 15:43:13;;;;;;;1.80;1.70;;;;;;;;;;4956459;29;20687;-71
2023/09/04 15:45:41;;;;;;;1.77;1.65;;;;;;;;;;4956263;29;20199;-71
2023/09/04 15:48:09;;;;;;;1.35;1.35;;;;;;;;;;4956246;29;20204;-71
2023/09/04 15:50:36;;;;;;;1.65;1.50;;;;;;;;;;4956249;29;20204;-71
2023/09/04 15:53:03;;;;;;;2.40;1.40;;;;;;;;;;4956228;29;20212;-71
2023/09/04 15:55:30;;;;;;;2.20;1.33;;;;;;;;;;4956044;29;20207;-70
2023/09/04 15:57:57;;;;;;;1.58;1.58;;;;;;;;;;4956265;29;20207;-72
2023/09/04 16:00:24;;;;;;;2.60;1.60;;;;;;;;;;4956218;29;20208;-73
2023/09/04 16:02:52;;;;;;;1.30;1.30;;;;;;;;;;4956873;29;20214;-72
2023/09/04 16:05:19;;;;;;;1.20;1.20;;;;;;;;;;4957236;29;20227;-72
2023/09/04 16:07:46;;;;;;;3.25;1.77;;;;;;;;;;4956308;29;20563;-72
2023/09/04 16:10:13;;;;;;;2.28;2.08;;;;;;;;;;4956983;29;20726;-72
2023/09/04 16:12:40;;;;;;;1.55;1.45;;;;;;;;;;4956345;29;20293;-73
2023/09/04 16:15:08;;;;;;;1.95;1.85;;;;;;;;;;4955731;29;20667;-72
2023/09/04 16:17:36;;;;;;;1.85;1.75;;;;;;;;;;4955930;28;20200;-72
2023/09/04 16:20:04;;;;;;;2.45;2.03;;;;;;;;;;4956250;29;20231;-72
2023/09/04 16:22:31;;;;;;;1.75;1.65;;;;;;;;;;4955895;29;20207;-71
2023/09/04 16:24:58;;;;;;;2.33;1.80;;;;;;;;;;4955872;29;20223;-71
2023/09/04 16:27:25;;;;;;;1.85;1.75;;;;;;;;;;4955937;29;20198;-72
2023/09/04 16:29:54;;;;;;;2.15;2.00;;;;;;;;;;4955749;28;20230;-71
2023/09/04 16:32:21;;;;;;;2.10;2.00;;;;;;;;;;4955915;29;20199;-72
2023/09/04 16:34:48;;;;;;;2.85;2.03;;;;;;;;;;4955935;29;20250;-71
2023/09/04 16:37:20;;;;;;;2.10;1.92;;;;;;;;;;4956140;29;20218;-69
2023/09/04 16:39:47;;;;;;;2.13;2.03;;;;;;;;;;4957207;29;20711;-73
2023/09/04 16:42:14;;;;;;;2.63;2.33;;;23.70;99.90;;;;;;4955818;29;20203;-68
2023/09/04 16:44:41;;;;;;;2.35;2.25;;;23.60;99.90;;;;;;4955868;29;20563;-69
2023/09/04 16:47:08;;;;;;;2.15;2.05;;;23.50;99.90;;;;;;4955737;29;20215;-71
2023/09/04 16:49:34;;;;;;;2.72;2.20;;;23.50;99.90;;;;;;4955923;29;20220;-71
2023/09/04 16:52:01;;;;;;;2.38;2.13;;;23.40;99.90;;;;;;4955583;29;20214;-71
2023/09/04 16:54:29;;;;;;;2.38;2.17;;;23.40;99.90;;;;;;4955434;29;20200;-70
2023/09/04 16:56:56;;;;;;;2.42;2.08;;;23.40;99.90;;;;;;4955276;29;20203;-70
2023/09/04 16:59:23;;;;;;;2.53;2.42;;;23.30;99.90;;;;;;4955705;28;20231;-71
2023/09/04 17:01:50;;;;;;;2.05;1.95;;;23.20;99.90;;;;;;4955691;29;20208;-71
2023/09/04 17:04:18;;;;;;;2.00;1.90;;;23.10;99.90;;;;;;4955516;29;20651;-71
2023/09/04 17:06:45;;;;;;;2.30;2.10;;;23.10;99.90;;;;;;4955728;28;20204;-71
2023/09/04 17:09:12;;;;;;;2.05;1.95;;;23.00;99.90;;;;;;4955392;28;20227;-70
2023/09/04 17:11:40;;;;;;;1.73;1.63;;;23.00;99.90;;;;;;4955213;29;20204;-71
2023/09/04 17:14:07;;;;;;;1.77;1.67;;;22.90;99.90;;;;;;4955723;29;20203;-71
2023/09/04 17:16:34;;;;;;;2.10;2.00;;;22.80;99.90;;;;;;4955508;29;20203;-71
2023/09/04 17:19:00;;;;;;;2.47;1.95;;;22.60;99.90;;;;;;4955464;29;20227;-71
2023/09/04 17:21:28;;;;;;;1.92;1.83;;;22.50;99.90;;;;;;4955459;29;20555;-70
2023/09/04 17:23:54;;;;;;;2.10;2.00;;;22.50;99.90;;;;;;4955145;29;20590;-71
2023/09/04 17:26:21;;;;;;;1.90;1.80;;;22.40;99.90;;;;;;4955328;29;20649;-69
2023/09/04 17:28:49;;;;;;;2.53;2.35;;;22.30;99.90;;;;;;4955636;29;20224;-69
2023/09/04 17:31:16;;;;;;;1.92;1.90;;;22.20;99.90;;;;;;4955483;29;20211;-70
2023/09/04 17:33:43;;;;;;;2.92;2.17;;;22.10;99.90;;;;;;4955549;29;20211;-71
2023/09/04 17:36:10;;;;;;;2.17;2.08;;;22.00;99.90;;;;;;4955323;29;20192;-71
2023/09/04 17:38:36;;;;;;;2.03;1.92;;;21.90;99.90;;;;;;4954944;29;20227;-70
2023/09/04 17:41:05;;;;;;;1.90;1.80;;;21.70;99.90;;;;;;4957289;28;20219;-71
2023/09/04 17:43:31;;;;;;;1.48;1.48;;;21.40;99.90;;;;;;4958630;29;20214;-70
2023/09/04 17:45:59;;;;;;;2.10;2.00;;;21.20;99.90;;;;;;4958943;28;20671;-72
2023/09/04 17:48:26;;;;;;;2.13;2.03;;;20.90;99.90;;;;;;4957904;29;20230;-71
2023/09/04 17:50:53;;;;;;;3.35;2.67;;;20.70;99.90;;;;;;4958356;29;20203;-71
2023/09/04 17:53:20;;;;;;;2.13;2.03;;;20.70;99.90;;;;;;4958572;28;20200;-72
2023/09/04 17:55:47;;;;;;;2.47;2.38;;;20.70;99.90;;;;;;4958382;29;20227;-71
2023/09/04 17:58:13;;;;;;;3.45;2.55;;;20.80;99.90;;;;;;4958147;29;20215;-71
2023/09/04 18:00:40;;;;;;;2.30;2.20;;;20.90;99.90;;;;;;4958172;29;20206;-71
2023/09/04 18:03:08;;;;;;;2.58;2.47;;;20.90;99.90;;;;;;4958211;29;20207;-71
2023/09/04 18:05:35;;;;;;;2.22;2.13;;;20.90;99.90;;;;;;4957822;29;20219;-71
2023/09/04 18:08:02;;;;;;;2.20;2.10;;;20.90;99.90;;;;;;4957743;29;20210;-71
2023/09/04 18:10:30;;;;;;;2.50;2.40;;;20.70;99.90;;;;;;4959000;29;20250;-71
2023/09/04 18:12:57;;;;;;;2.88;2.70;;;20.70;99.90;;;;;;4958444;29;20199;-71
2023/09/04 18:15:25;;;;;;;2.50;2.30;;;20.60;99.90;;;;;;4958271;29;20291;-71
2023/09/04 18:17:51;;;;;;;2.63;2.53;;;20.50;99.90;;;;;;4957925;29;20675;-71
2023/09/04 18:20:19;;;;;;;6.47;2.55;;;20.40;99.90;;;;;;4957954;29;20231;-71
2023/09/04 18:22:47;;;;;;;2.30;2.20;;;20.40;99.90;;;;;;4957558;29;20644;-71
2023/09/04 18:25:14;;;;;;;2.50;2.15;;;20.20;99.90;;;;;;4957924;29;20303;-71
2023/09/04 18:27:42;;;;;;;2.40;2.30;;;20.10;99.90;;;;;;4959549;29;20663;-71
2023/09/04 18:30:11;;;;;;;2.40;2.30;;;19.90;99.90;;;;;;4959306;29;20227;-75
2023/09/04 18:32:38;;;;;;;2.13;2.03;;;19.70;99.90;;;;;;4960597;29;20199;-72
2023/09/04 18:35:05;;;;;;;2.63;2.42;;;19.50;99.90;;;;;;4961126;29;20204;-73
2023/09/04 18:37:33;;;;;;;2.42;2.33;;;19.40;99.90;;;;;;4961404;29;20207;-74
2023/09/04 18:40:00;;;;;;;2.22;2.13;;;19.40;99.90;;;;;;4960044;29;20227;-75
2023/09/04 18:42:27;;;;;;;2.08;1.98;;;19.30;99.90;;;;;;4960614;29;20214;-75
2023/09/04 18:44:53;;;;;;;1.80;1.70;;;19.20;99.90;;;;;;4960988;29;20310;-75
2023/09/04 18:47:20;;;;;;;1.98;1.90;;;19.00;99.90;;;;;;4959963;29;20209;-74
2023/09/04 18:49:50;;;;;;;2.30;2.20;;;18.90;99.90;;;;;;4959997;29;20227;-74
2023/09/04 18:52:18;;;;;;;1.77;1.67;;;18.70;99.90;;;;;;4960731;29;20208;-74
2023/09/04 18:54:47;;;;;;;1.88;1.83;;;18.60;99.90;;;;;;4959278;28;20214;-74
2023/09/04 18:57:14;;;;;;;2.15;2.05;;;18.50;99.90;;;;;;4958992;29;20211;-74
2023/09/04 18:59:41;;;;;;;2.20;2.10;;;18.40;99.90;;;;;;4958869;29;20243;-73
2023/09/04 19:02:08;;;;;;;2.25;2.15;;;18.30;99.90;;;;;;4960154;29;20210;-73